createdAt,value
2018-06-08T00:00:40.510Z,0.00
2018-06-08T00:01:40.372Z,0.00
2018-06-08T00:02:40.362Z,0.00
2018-06-08T00:18:03.197Z,0.00
2018-06-08T00:20:45.315Z,0.00
2018-06-08T00:21:45.351Z,0.00
2018-06-08T00:22:45.149Z,0.00
2018-06-08T00:23:45.192Z,0.00
2018-06-08T00:24:45.006Z,0.00
2018-06-08T00:25:44.977Z,0.00
2018-06-08T00:26:44.849Z,0.00
2018-06-08T00:27:44.933Z,0.00
2018-06-08T00:28:44.704Z,0.00
2018-06-08T00:29:44.696Z,0.00
2018-06-08T00:30:44.538Z,0.00
2018-06-08T00:31:44.546Z,0.00
2018-06-08T00:32:44.411Z,0.00
2018-06-08T00:33:44.444Z,0.00
2018-06-08T00:34:44.217Z,0.00
2018-06-08T00:35:44.243Z,0.00
2018-06-08T00:36:44.089Z,0.00
2018-06-08T00:37:44.034Z,0.00
2018-06-08T00:38:43.930Z,0.00
2018-06-08T00:39:43.943Z,0.00
2018-06-08T00:40:43.773Z,0.00
2018-06-08T00:41:43.756Z,0.00
2018-06-08T00:42:43.619Z,0.00
2018-06-08T00:43:43.595Z,0.00
2018-06-08T00:44:43.452Z,0.00
2018-06-08T00:47:25.319Z,0.00
2018-06-08T00:48:25.366Z,0.00
2018-06-08T00:49:25.207Z,0.00
2018-06-08T00:50:25.178Z,0.00
2018-06-08T00:51:25.114Z,0.00
2018-06-08T00:52:24.973Z,0.00
2018-06-08T00:53:24.852Z,0.00
2018-06-08T00:54:24.952Z,0.00
2018-06-08T00:55:24.753Z,0.00
2018-06-08T00:56:24.732Z,0.00
2018-06-08T00:57:24.542Z,0.00
2018-06-08T00:58:24.511Z,0.00
2018-06-08T00:59:24.397Z,0.00
2018-06-08T01:00:24.450Z,0.00
2018-06-08T01:01:24.232Z,0.00
2018-06-08T01:02:24.226Z,0.00
2018-06-08T01:03:24.075Z,0.00
2018-06-08T01:06:06.404Z,0.00
2018-06-08T01:07:06.337Z,0.00
2018-06-08T01:08:06.171Z,0.00
2018-06-08T01:09:06.150Z,0.00
2018-06-08T01:10:06.046Z,0.00
2018-06-08T01:12:48.319Z,0.00
2018-06-08T01:13:48.362Z,0.00
2018-06-08T01:14:48.203Z,0.00
2018-06-08T01:15:48.211Z,0.00
2018-06-08T01:16:48.010Z,0.00
2018-06-08T01:17:47.985Z,0.00
2018-06-08T01:18:47.854Z,0.00
2018-06-08T01:19:47.887Z,0.00
2018-06-08T01:20:47.719Z,0.00
2018-06-08T01:21:47.689Z,0.00
2018-06-08T01:22:47.576Z,0.00
2018-06-08T01:23:47.501Z,0.00
2018-06-08T01:24:47.394Z,0.00
2018-06-08T01:25:47.448Z,0.00
2018-06-08T01:41:09.671Z,0.00
2018-06-08T01:42:09.500Z,0.00
2018-06-08T01:43:09.464Z,0.00
2018-06-08T01:44:09.309Z,0.00
2018-06-08T01:45:09.361Z,0.00
2018-06-08T01:46:09.159Z,0.00
2018-06-08T01:47:10.217Z,0.00
2018-06-08T01:48:09.002Z,0.00
2018-06-08T01:49:08.968Z,0.00
2018-06-08T01:50:08.846Z,0.00
2018-06-08T01:51:08.875Z,0.00
2018-06-08T01:52:08.725Z,0.00
2018-06-08T01:53:08.726Z,0.00
2018-06-08T01:54:08.532Z,0.00
2018-06-08T01:55:08.502Z,0.00
2018-06-08T01:56:08.388Z,0.00
2018-06-08T01:57:08.451Z,0.00
2018-06-08T01:58:08.247Z,0.00
2018-06-08T01:59:08.259Z,0.00
2018-06-08T02:00:08.073Z,0.00
2018-06-08T02:01:08.023Z,0.00
2018-06-08T02:02:07.934Z,0.00
2018-06-08T02:03:07.974Z,0.00
2018-06-08T02:04:07.770Z,0.00
2018-06-08T02:06:49.845Z,0.00
2018-06-08T02:07:49.850Z,0.00
2018-06-08T02:08:49.715Z,0.00
2018-06-08T02:09:49.681Z,0.00
2018-06-08T02:10:49.602Z,0.00
2018-06-08T02:11:49.566Z,0.00
2018-06-08T02:12:49.370Z,0.00
2018-06-08T02:13:50.440Z,0.00
2018-06-08T02:14:49.225Z,0.00
2018-06-08T02:15:49.185Z,0.00
2018-06-08T02:16:49.059Z,0.00
2018-06-08T02:17:49.113Z,0.00
2018-06-08T02:18:48.917Z,0.00
2018-06-08T02:19:49.975Z,0.00
2018-06-08T02:20:48.748Z,0.00
2018-06-08T02:22:28.442Z,0.00
2018-06-08T02:22:48.722Z,0.00
2018-06-08T02:23:48.544Z,0.00
2018-06-08T02:24:48.570Z,0.00
2018-06-08T02:25:48.366Z,0.00
2018-06-08T02:26:48.331Z,0.00
2018-06-08T02:27:48.208Z,0.00
2018-06-08T02:30:30.377Z,0.00
2018-06-08T02:31:30.341Z,0.00
2018-06-08T02:32:30.186Z,0.00
2018-06-08T02:33:30.163Z,0.00
2018-06-08T02:34:30.035Z,0.00
2018-06-08T02:35:30.091Z,0.00
2018-06-08T02:36:29.875Z,0.00
2018-06-08T02:39:11.868Z,0.00
2018-06-08T02:40:11.909Z,0.00
2018-06-08T02:41:11.692Z,0.00
2018-06-08T02:42:11.679Z,0.00
2018-06-08T02:43:11.558Z,0.00
2018-06-08T02:44:11.587Z,0.00
2018-06-08T02:45:11.387Z,4.00
2018-06-08T02:46:11.435Z,4.00
2018-06-08T02:47:11.227Z,4.00
2018-06-08T02:48:11.223Z,4.00
2018-06-08T02:49:11.090Z,0.00
2018-06-08T02:50:11.119Z,4.00
2018-06-08T02:51:10.955Z,4.00
2018-06-08T03:07:33.589Z,24.00
2018-06-08T03:08:33.559Z,28.00
2018-06-08T03:09:33.389Z,32.00
2018-06-08T03:12:15.380Z,40.00
2018-06-08T03:13:15.363Z,40.00
2018-06-08T03:14:15.211Z,44.00
2018-06-08T03:16:57.407Z,52.00
2018-06-08T03:17:57.375Z,56.00
2018-06-08T03:18:57.317Z,56.00
2018-06-08T03:19:57.186Z,60.00
2018-06-08T03:20:57.047Z,64.00
2018-06-08T03:21:57.093Z,68.00
2018-06-08T03:22:56.936Z,72.00
2018-06-08T03:23:56.909Z,80.00
2018-06-08T03:24:56.743Z,88.00
2018-06-08T03:27:38.886Z,112.00
2018-06-08T03:30:20.887Z,144.00
2018-06-08T03:31:20.913Z,156.00
2018-06-08T03:32:20.720Z,168.00
2018-06-08T03:33:20.744Z,184.00
2018-06-08T03:34:20.548Z,196.00
2018-06-08T03:37:02.875Z,216.00
2018-06-08T03:38:02.842Z,220.00
2018-06-08T03:39:02.745Z,228.00
2018-06-08T03:41:44.872Z,244.00
2018-06-08T03:42:44.845Z,248.00
2018-06-08T03:43:44.774Z,260.00
2018-06-08T03:46:26.862Z,296.00
2018-06-08T03:47:26.851Z,312.00
2018-06-08T03:48:26.729Z,324.00
2018-06-08T04:05:24.556Z,496.00
2018-06-08T04:06:24.337Z,512.00
2018-06-08T04:07:24.327Z,540.00
2018-06-08T04:08:24.190Z,568.00
2018-06-08T04:09:24.129Z,604.00
2018-06-08T04:10:24.144Z,644.00
2018-06-08T04:11:24.125Z,688.00
2018-06-08T04:12:23.870Z,740.00
2018-06-08T04:15:05.879Z,912.00
2018-06-08T04:16:05.880Z,992.00
2018-06-08T04:17:05.734Z,1064.00
2018-06-08T04:18:05.755Z,1148.00
2018-06-08T04:19:05.577Z,1228.00
2018-06-08T04:21:47.906Z,1460.00
2018-06-08T04:22:47.869Z,1556.00
2018-06-08T04:23:47.735Z,1648.00
2018-06-08T04:24:47.691Z,1728.00
2018-06-08T04:25:47.654Z,1800.00
2018-06-08T04:26:47.591Z,1848.00
2018-06-08T04:27:47.421Z,1840.00
2018-06-08T04:30:29.377Z,1756.00
2018-06-08T04:31:29.428Z,1716.00
2018-06-08T04:32:29.222Z,1692.00
2018-06-08T04:33:29.202Z,1672.00
2018-06-08T04:34:29.081Z,1640.00
2018-06-08T04:35:29.123Z,1600.00
2018-06-08T04:36:28.940Z,1552.00
2018-06-08T04:37:28.921Z,1496.00
2018-06-08T04:38:28.764Z,1432.00
2018-06-08T04:39:28.729Z,1368.00
2018-06-08T04:43:29.001Z,1156.00
2018-06-08T04:44:27.847Z,1120.00
2018-06-08T04:47:09.912Z,1064.00
2018-06-08T04:48:09.869Z,1060.00
2018-06-08T04:49:09.740Z,1068.00
2018-06-08T04:51:52.070Z,1116.00
2018-06-08T04:52:51.859Z,1132.00
2018-06-08T04:53:51.751Z,1152.00
2018-06-08T04:54:51.767Z,1172.00
2018-06-08T04:55:51.589Z,1192.00
2018-06-08T04:56:52.649Z,1204.00
2018-06-08T04:57:51.425Z,1224.00
2018-06-08T05:00:33.395Z,1312.00
2018-06-08T05:01:33.387Z,1352.00
2018-06-08T05:02:33.251Z,1388.00
2018-06-08T05:03:33.199Z,1428.00
2018-06-08T05:04:33.088Z,1468.00
2018-06-08T05:05:33.106Z,1500.00
2018-06-08T05:06:32.926Z,1540.00
2018-06-08T05:07:32.958Z,1588.00
2018-06-08T05:08:32.774Z,1632.00
2018-06-08T05:11:14.920Z,1808.00
2018-06-08T05:12:14.954Z,1884.00
2018-06-08T05:13:14.746Z,1976.00
2018-06-08T05:14:14.763Z,2076.00
2018-06-08T05:15:14.613Z,2192.00
2018-06-08T05:16:14.667Z,2372.00
2018-06-08T05:17:14.435Z,2548.00
2018-06-08T05:18:14.556Z,2716.00
2018-06-08T05:19:14.313Z,2904.00
2018-06-08T05:20:14.264Z,3064.00
2018-06-08T05:21:14.121Z,3196.00
2018-06-08T05:22:14.277Z,3300.00
2018-06-08T05:28:56.554Z,3864.00
2018-06-08T05:29:55.266Z,3932.00
2018-06-08T05:32:37.396Z,4084.00
2018-06-08T05:33:37.518Z,4128.00
2018-06-08T05:34:37.253Z,4164.00
2018-06-08T05:35:37.403Z,4216.00
2018-06-08T05:36:37.097Z,4260.00
2018-06-08T05:37:37.230Z,4328.00
2018-06-08T05:38:36.957Z,4388.00
2018-06-08T05:39:37.015Z,4448.00
2018-06-08T05:40:36.835Z,4508.00
2018-06-08T05:41:36.933Z,4552.00
2018-06-08T05:42:36.639Z,4596.00
2018-06-08T05:43:36.746Z,4636.00
2018-06-08T05:44:36.524Z,4676.00
2018-06-08T05:45:37.606Z,4700.00
2018-06-08T05:46:36.321Z,4692.00
2018-06-08T05:47:36.467Z,4688.00
2018-06-08T05:48:36.237Z,4672.00
2018-06-08T05:49:37.327Z,4660.00
2018-06-08T05:50:36.029Z,4676.00
2018-06-08T05:51:35.985Z,4708.00
2018-06-08T05:52:35.872Z,4744.00
2018-06-08T05:53:35.972Z,4780.00
2018-06-08T05:54:35.734Z,4816.00
2018-06-08T05:55:35.735Z,4860.00
2018-06-08T05:56:35.569Z,4896.00
2018-06-08T05:57:35.616Z,4904.00
2018-06-08T05:58:35.400Z,4892.00
2018-06-08T05:59:35.405Z,4868.00
2018-06-08T06:00:35.264Z,4888.00
2018-06-08T06:01:35.213Z,4872.00
2018-06-08T06:02:35.094Z,4892.00
2018-06-08T06:03:35.136Z,4920.00
2018-06-08T06:04:34.970Z,5004.00
2018-06-08T06:07:16.932Z,5200.00
2018-06-08T06:08:16.936Z,5344.00
2018-06-08T06:09:16.776Z,5564.00
2018-06-08T06:10:16.749Z,5688.00
2018-06-08T06:11:16.618Z,5712.00
2018-06-08T06:12:16.590Z,5792.00
2018-06-08T06:13:16.466Z,5840.00
2018-06-08T06:14:16.379Z,5944.00
2018-06-08T06:15:16.440Z,5916.00
2018-06-08T06:16:16.792Z,6024.00
2018-06-08T06:17:16.186Z,6112.00
2018-06-08T06:18:16.178Z,6188.00
2018-06-08T06:19:16.438Z,6232.00
2018-06-08T06:20:15.989Z,6228.00
2018-06-08T06:21:15.847Z,6300.00
2018-06-08T06:22:15.838Z,6348.00
2018-06-08T06:23:15.707Z,6468.00
2018-06-08T06:28:21.938Z,6636.00
2018-06-08T06:31:03.920Z,6476.00
2018-06-08T06:32:03.965Z,6368.00
2018-06-08T06:33:03.779Z,6172.00
2018-06-08T06:34:03.785Z,6236.00
2018-06-08T06:35:03.612Z,6324.00
2018-06-08T06:36:03.635Z,6632.00
2018-06-08T06:37:03.509Z,7032.00
2018-06-08T06:38:03.603Z,7448.00
2018-06-08T06:39:03.335Z,7748.00
2018-06-08T06:40:03.321Z,7976.00
2018-06-08T06:41:03.160Z,7968.00
2018-06-08T06:42:03.180Z,7748.00
2018-06-08T06:43:03.028Z,7536.00
2018-06-08T06:45:44.979Z,7312.00
2018-06-08T06:48:31.044Z,7360.00
2018-06-08T06:51:12.946Z,7028.00
2018-06-08T06:52:12.928Z,6824.00
2018-06-08T06:53:12.834Z,6432.00
2018-06-08T06:54:12.734Z,6084.00
2018-06-08T06:55:12.624Z,5796.00
2018-06-08T06:56:12.645Z,5548.00
2018-06-08T06:57:12.466Z,5320.00
2018-06-08T06:58:12.475Z,5052.00
2018-06-08T06:59:12.316Z,4840.00
2018-06-08T07:00:12.368Z,4664.00
2018-06-08T07:01:12.190Z,4492.00
2018-06-08T07:02:12.169Z,4472.00
2018-06-08T07:03:12.049Z,4532.00
2018-06-08T07:04:11.983Z,4604.00
2018-06-08T07:06:36.426Z,4812.00
2018-06-08T07:07:36.564Z,4968.00
2018-06-08T07:08:36.300Z,5192.00
2018-06-08T07:14:06.786Z,8012.00
2018-06-08T07:15:06.833Z,8712.00
2018-06-08T07:16:06.610Z,9756.00
2018-06-08T07:17:06.635Z,10600.00
2018-06-08T07:18:06.487Z,10748.00
2018-06-08T07:20:06.327Z,10936.00
2018-06-08T07:21:06.381Z,10804.00
2018-06-08T07:22:06.162Z,11036.00
2018-06-08T07:23:06.160Z,11520.00
2018-06-08T07:24:06.094Z,11732.00
2018-06-08T07:26:47.990Z,11588.00
2018-06-08T07:29:41.472Z,11360.00
2018-06-08T07:30:41.449Z,11416.00
2018-06-08T07:31:41.368Z,11596.00
2018-06-08T07:34:23.470Z,12024.00
2018-06-08T07:35:23.447Z,12008.00
2018-06-08T07:36:23.306Z,11928.00
2018-06-08T07:37:23.252Z,11804.00
2018-06-08T07:38:23.157Z,11728.00
2018-06-08T07:39:24.139Z,11896.00
2018-06-08T07:40:23.010Z,12284.00
2018-06-08T07:41:22.977Z,12396.00
2018-06-08T07:42:22.864Z,12364.00
2018-06-08T07:45:04.979Z,13764.00
2018-06-08T07:46:04.987Z,14524.00
2018-06-08T07:47:04.808Z,14968.00
2018-06-08T07:48:04.800Z,15492.00
2018-06-08T07:49:04.655Z,16064.00
2018-06-08T07:50:05.651Z,16064.00
2018-06-08T07:51:04.493Z,16288.00
2018-06-08T07:52:04.511Z,17024.00
2018-06-08T07:53:04.354Z,17248.00
2018-06-08T07:54:04.323Z,17568.00
2018-06-08T07:55:04.243Z,18464.00
2018-06-08T07:56:04.233Z,18016.00
2018-06-08T07:57:04.049Z,15300.00
2018-06-08T07:59:45.971Z,11344.00
2018-06-08T08:00:45.967Z,12568.00
2018-06-08T08:01:45.844Z,13644.00
2018-06-08T08:02:45.843Z,13084.00
2018-06-08T08:03:45.705Z,12972.00
2018-06-08T08:04:45.654Z,13208.00
2018-06-08T08:05:45.551Z,11792.00
2018-06-08T08:06:45.575Z,11828.00
2018-06-08T08:07:45.354Z,14624.00
2018-06-08T08:10:27.488Z,30720.00
2018-06-08T08:11:28.444Z,38336.00
2018-06-08T08:12:27.320Z,23744.00
2018-06-08T08:13:27.284Z,19584.00
2018-06-08T08:14:27.199Z,18528.00
2018-06-08T08:17:09.471Z,18304.00
2018-06-08T08:18:09.539Z,13164.00
2018-06-08T08:19:09.309Z,14408.00
2018-06-08T08:20:09.300Z,18784.00
2018-06-08T08:21:09.221Z,21472.00
2018-06-08T08:22:09.222Z,29824.00
2018-06-08T08:23:09.034Z,20992.00
2018-06-08T08:25:50.991Z,28256.00
2018-06-08T08:26:50.967Z,42688.00
2018-06-08T08:27:50.821Z,30976.00
2018-06-08T08:28:53.253Z,31040.00
2018-06-08T08:29:50.679Z,29024.00
2018-06-08T08:30:51.871Z,25600.00
2018-06-08T08:31:50.572Z,23904.00
2018-06-08T08:32:50.552Z,20000.00
2018-06-08T08:33:50.393Z,17184.00
2018-06-08T08:34:54.885Z,18048.00
2018-06-08T08:35:50.235Z,16608.00
2018-06-08T08:36:51.218Z,12848.00
2018-06-08T08:37:50.121Z,10180.00
2018-06-08T08:38:50.048Z,9800.00
2018-06-08T08:39:49.955Z,9904.00
2018-06-08T08:40:49.890Z,9336.00
2018-06-08T08:41:49.876Z,8944.00
2018-06-08T08:42:49.970Z,10604.00
2018-06-08T08:43:49.664Z,14140.00
2018-06-08T08:46:31.998Z,7920.00
2018-06-08T08:47:32.071Z,7292.00
2018-06-08T08:48:31.828Z,7348.00
2018-06-08T08:49:31.771Z,7780.00
2018-06-08T08:50:31.671Z,8312.00
2018-06-08T08:51:31.811Z,8264.00
2018-06-08T08:52:31.572Z,6992.00
2018-06-08T08:53:31.535Z,5544.00
2018-06-08T08:54:31.423Z,4932.00
2018-06-08T08:57:13.495Z,4956.00
2018-06-08T08:59:55.530Z,4232.00
2018-06-08T09:00:57.912Z,4136.00
2018-06-08T09:01:55.344Z,4052.00
2018-06-08T09:04:37.515Z,4688.00
2018-06-08T09:05:37.450Z,4768.00
2018-06-08T09:06:37.329Z,4452.00
2018-06-08T09:07:37.416Z,4060.00
2018-06-08T09:08:37.173Z,3564.00
2018-06-08T09:09:37.276Z,3008.00
2018-06-08T09:10:37.040Z,2680.00
2018-06-08T09:11:37.007Z,3012.00
2018-06-08T09:12:36.886Z,3752.00
2018-06-08T09:13:36.895Z,3904.00
2018-06-08T09:14:36.765Z,3024.00
2018-06-08T09:15:36.702Z,2420.00
2018-06-08T09:16:36.600Z,2492.00
2018-06-08T09:19:18.534Z,3840.00
2018-06-08T09:20:18.539Z,4052.00
2018-06-08T09:21:18.322Z,4544.00
2018-06-08T09:23:00.083Z,4748.00
2018-06-08T09:23:18.222Z,4800.00
2018-06-08T09:24:18.141Z,4400.00
2018-06-08T09:26:59.986Z,3536.00
2018-06-08T09:28:00.030Z,2900.00
2018-06-08T09:28:59.828Z,2204.00
2018-06-08T09:29:59.989Z,2096.00
2018-06-08T09:30:59.689Z,2232.00
2018-06-08T09:33:41.996Z,2332.00
2018-06-08T09:34:41.959Z,2312.00
2018-06-08T09:35:41.857Z,2260.00
2018-06-08T09:36:41.904Z,2040.00
2018-06-08T09:37:41.675Z,1736.00
2018-06-08T09:38:41.677Z,1476.00
2018-06-08T09:39:41.534Z,1196.00
2018-06-08T09:40:41.507Z,932.00
2018-06-08T09:41:41.376Z,744.00
2018-06-08T09:42:41.305Z,680.00
2018-06-08T09:43:41.220Z,596.00
2018-06-08T09:44:41.357Z,532.00
2018-06-08T09:45:41.152Z,504.00
2018-06-08T09:46:41.118Z,548.00
2018-06-08T09:47:40.931Z,612.00
2018-06-08T09:50:23.014Z,812.00
2018-06-08T09:53:05.016Z,992.00
2018-06-08T09:55:47.163Z,884.00
2018-06-08T09:56:46.992Z,808.00
2018-06-08T09:57:46.838Z,768.00
2018-06-08T10:00:29.010Z,884.00
2018-06-08T10:01:29.978Z,1128.00
2018-06-08T10:02:28.853Z,1372.00
2018-06-08T10:03:28.828Z,1708.00
2018-06-08T10:04:28.697Z,1880.00
2018-06-08T10:05:28.739Z,2140.00
2018-06-08T10:06:28.566Z,2484.00
2018-06-08T10:07:28.557Z,2888.00
2018-06-08T10:08:28.411Z,3136.00
2018-06-08T10:09:28.303Z,3172.00
2018-06-08T10:10:28.279Z,3240.00
2018-06-08T10:11:29.215Z,3220.00
2018-06-08T10:12:28.075Z,3272.00
2018-06-08T10:13:28.136Z,3372.00
2018-06-08T10:14:27.918Z,3632.00
2018-06-08T10:15:27.889Z,3512.00
2018-06-08T10:16:27.753Z,3548.00
2018-06-08T10:17:27.826Z,3596.00
2018-06-08T10:18:27.617Z,3620.00
2018-06-08T10:19:27.623Z,3716.00
2018-06-08T10:20:27.539Z,3744.00
2018-06-08T10:21:28.509Z,3820.00
2018-06-08T10:22:27.309Z,3904.00
2018-06-08T10:23:27.326Z,3976.00
2018-06-08T10:24:27.166Z,4044.00
2018-06-08T10:25:27.129Z,4104.00
2018-06-08T10:26:27.000Z,4156.00
2018-06-08T10:27:28.003Z,4236.00
2018-06-08T10:28:26.857Z,4324.00
2018-06-08T10:31:09.035Z,4732.00
2018-06-08T10:32:09.070Z,4964.00
2018-06-08T10:33:08.847Z,5180.00
2018-06-08T10:34:08.962Z,5440.00
2018-06-08T10:35:08.690Z,5732.00
2018-06-08T10:36:08.675Z,5992.00
2018-06-08T10:37:08.543Z,6212.00
2018-06-08T10:39:50.543Z,6924.00
2018-06-08T10:40:50.434Z,7104.00
2018-06-08T10:41:50.352Z,6996.00
2018-06-08T10:42:50.412Z,7284.00
2018-06-08T10:43:50.236Z,7264.00
2018-06-08T10:44:51.245Z,7016.00
2018-06-08T10:45:50.040Z,6924.00
2018-06-08T10:46:50.007Z,6896.00
2018-06-08T10:47:49.888Z,6840.00
2018-06-08T10:48:49.908Z,6760.00
2018-06-08T10:49:49.788Z,6860.00
2018-06-08T10:50:49.726Z,6812.00
2018-06-08T10:51:49.590Z,6488.00
2018-06-08T10:52:49.536Z,6384.00
2018-06-08T10:53:49.477Z,6276.00
2018-06-08T10:54:49.442Z,6040.00
2018-06-08T10:55:49.282Z,5852.00
2018-06-08T10:56:49.271Z,5708.00
2018-06-08T10:57:49.117Z,5568.00
2018-06-08T10:58:49.255Z,5456.00
2018-06-08T10:59:49.193Z,5352.00
2018-06-08T11:00:48.993Z,5244.00
2018-06-08T11:01:49.382Z,5168.00
2018-06-08T11:02:48.805Z,5092.00
2018-06-08T11:03:48.647Z,4996.00
2018-06-08T11:06:30.548Z,5148.00
2018-06-08T11:09:12.532Z,5064.00
2018-06-08T11:10:12.507Z,5056.00
2018-06-08T11:11:12.385Z,5068.00
2018-06-08T11:13:54.517Z,5144.00
2018-06-08T11:14:54.506Z,5244.00
2018-06-08T11:15:54.387Z,5372.00
2018-06-08T11:18:36.511Z,5648.00
2018-06-08T11:19:36.517Z,5792.00
2018-06-08T11:20:36.410Z,6032.00
2018-06-08T11:21:36.515Z,6184.00
2018-06-08T11:22:36.207Z,6204.00
2018-06-08T11:23:36.228Z,6336.00
2018-06-08T11:24:36.072Z,6408.00
2018-06-08T11:25:36.046Z,6556.00
2018-06-08T11:26:35.925Z,6704.00
2018-06-08T11:27:35.937Z,6896.00
2018-06-08T11:28:35.740Z,7072.00
2018-06-08T11:31:18.047Z,7464.00
2018-06-08T11:32:18.060Z,7608.00
2018-06-08T11:33:17.876Z,7756.00
2018-06-08T11:34:17.879Z,8016.00
2018-06-08T11:35:17.713Z,8152.00
2018-06-08T11:36:17.729Z,8016.00
2018-06-08T11:37:17.560Z,8120.00
2018-06-08T11:38:17.623Z,8320.00
2018-06-08T11:39:17.458Z,8496.00
2018-06-08T11:41:59.607Z,7704.00
2018-06-08T11:42:59.598Z,7172.00
2018-06-08T11:43:59.378Z,7976.00
2018-06-08T11:44:59.406Z,7876.00
2018-06-08T11:45:59.230Z,7568.00
2018-06-08T11:46:59.250Z,8096.00
2018-06-08T11:47:59.139Z,8088.00
2018-06-08T11:50:41.560Z,7248.00
2018-06-08T11:51:41.578Z,6500.00
2018-06-08T11:52:41.383Z,7348.00
2018-06-08T11:53:41.387Z,7292.00
2018-06-08T11:54:41.254Z,6752.00
2018-06-08T11:57:23.566Z,7280.00
2018-06-08T11:58:23.550Z,7800.00
2018-06-08T11:59:23.382Z,7816.00
2018-06-08T12:00:23.361Z,7496.00
2018-06-08T12:01:23.258Z,6432.00
2018-06-08T12:02:23.269Z,6692.00
2018-06-08T12:03:23.062Z,7592.00
2018-06-08T12:04:23.069Z,7328.00
2018-06-08T12:05:22.927Z,7596.00
2018-06-08T12:06:22.938Z,8392.00
2018-06-08T12:07:22.784Z,8472.00
2018-06-08T12:08:22.875Z,8312.00
2018-06-08T12:09:22.604Z,8344.00
2018-06-08T12:12:04.573Z,8104.00
2018-06-08T12:13:04.489Z,7812.00
2018-06-08T12:14:04.410Z,8288.00
2018-06-08T12:15:04.415Z,8008.00
2018-06-08T12:16:04.250Z,8288.00
2018-06-08T12:17:04.229Z,8600.00
2018-06-08T12:18:04.067Z,8856.00
2018-06-08T12:19:04.054Z,8396.00
2018-06-08T12:20:03.930Z,7080.00
2018-06-08T12:21:03.939Z,6656.00
2018-06-08T12:22:03.790Z,6928.00
2018-06-08T12:23:03.764Z,7172.00
2018-06-08T12:24:03.643Z,7648.00
2018-06-08T12:25:03.696Z,7452.00
2018-06-08T12:26:03.479Z,7208.00
2018-06-08T12:28:45.552Z,8508.00
2018-06-08T12:29:45.572Z,9036.00
2018-06-08T12:30:45.422Z,9032.00
2018-06-08T12:33:27.555Z,6932.00
2018-06-08T12:34:27.574Z,6932.00
2018-06-08T12:35:27.417Z,7116.00
2018-06-08T12:36:27.414Z,7200.00
2018-06-08T12:37:27.240Z,7844.00
2018-06-08T12:40:09.557Z,6076.00
2018-06-08T12:41:09.551Z,6684.00
2018-06-08T12:42:09.396Z,7580.00
2018-06-08T12:43:09.428Z,7356.00
2018-06-08T12:44:09.243Z,7196.00
2018-06-08T12:45:09.233Z,7596.00
2018-06-08T12:46:09.136Z,7140.00
2018-06-08T12:47:09.126Z,8600.00
2018-06-08T12:48:08.997Z,8832.00
2018-06-08T12:49:08.943Z,7712.00
2018-06-08T12:50:08.779Z,8304.00
2018-06-08T12:51:08.880Z,8688.00
2018-06-08T12:52:08.648Z,9736.00
2018-06-08T12:53:08.663Z,11956.00
2018-06-08T12:54:08.485Z,12140.00
2018-06-08T12:55:08.468Z,11972.00
2018-06-08T12:56:08.382Z,13460.00
2018-06-08T12:57:08.321Z,14016.00
2018-06-08T12:58:08.186Z,13280.00
2018-06-08T12:59:08.212Z,11400.00
2018-06-08T13:00:08.024Z,11672.00
2018-06-08T13:01:08.047Z,12236.00
2018-06-08T13:02:07.899Z,12040.00
2018-06-08T13:03:07.930Z,12444.00
2018-06-08T13:04:07.720Z,12320.00
2018-06-08T13:05:07.725Z,11020.00
2018-06-08T13:06:07.583Z,9704.00
2018-06-08T13:07:07.561Z,9840.00
2018-06-08T13:08:07.420Z,11384.00
2018-06-08T13:09:07.455Z,12424.00
2018-06-08T13:10:07.269Z,13096.00
2018-06-08T13:11:07.237Z,11808.00
2018-06-08T13:12:07.147Z,12504.00
2018-06-08T13:13:09.111Z,12184.00
2018-06-08T13:14:06.989Z,10616.00
2018-06-08T13:15:06.965Z,9964.00
2018-06-08T13:16:06.822Z,9592.00
2018-06-08T13:17:06.772Z,9820.00
2018-06-08T13:18:06.694Z,10196.00
2018-06-08T13:19:06.695Z,10604.00
2018-06-08T13:20:06.550Z,9960.00
2018-06-08T13:21:06.494Z,8428.00
2018-06-08T13:22:06.359Z,7128.00
2018-06-08T13:23:06.482Z,6872.00
2018-06-08T13:24:06.219Z,7396.00
2018-06-08T13:26:48.103Z,8696.00
2018-06-08T13:27:48.100Z,8572.00
2018-06-08T13:28:47.984Z,8816.00
2018-06-08T13:29:47.925Z,9732.00
2018-06-08T13:30:47.754Z,9644.00
2018-06-08T13:31:47.745Z,9028.00
2018-06-08T13:32:47.639Z,9360.00
2018-06-08T13:33:47.666Z,9300.00
2018-06-08T13:34:47.484Z,8008.00
2018-06-08T13:35:47.435Z,8072.00
2018-06-08T13:36:47.303Z,9284.00
2018-06-08T13:37:47.390Z,11004.00
2018-06-08T13:38:47.195Z,12024.00
2018-06-08T13:39:47.210Z,12840.00
2018-06-08T13:40:47.028Z,13048.00
2018-06-08T13:41:46.998Z,12936.00
2018-06-08T13:42:46.869Z,12788.00
2018-06-08T13:43:46.873Z,12004.00
2018-06-08T13:44:46.752Z,10996.00
2018-06-08T13:47:28.930Z,10496.00
2018-06-08T13:48:28.604Z,10492.00
2018-06-08T13:49:28.595Z,9828.00
2018-06-08T13:52:10.565Z,9616.00
2018-06-08T13:53:10.612Z,9740.00
2018-06-08T13:54:10.437Z,9376.00
2018-06-08T13:55:10.458Z,9860.00
2018-06-08T13:56:10.272Z,9796.00
2018-06-08T13:57:10.307Z,9196.00
2018-06-08T13:58:10.120Z,8348.00
2018-06-08T13:59:10.122Z,7632.00
2018-06-08T14:00:10.013Z,7872.00
2018-06-08T14:01:09.962Z,8268.00
2018-06-08T14:02:09.832Z,8944.00
2018-06-08T14:03:09.837Z,8856.00
2018-06-08T14:04:09.689Z,9136.00
2018-06-08T14:05:10.704Z,9168.00
2018-06-08T14:06:09.547Z,9104.00
2018-06-08T14:07:09.554Z,8900.00
2018-06-08T14:08:09.367Z,8508.00
2018-06-08T14:10:51.600Z,7536.00
2018-06-08T14:11:52.618Z,7688.00
2018-06-08T14:12:51.440Z,8192.00
2018-06-08T14:13:51.474Z,8552.00
2018-06-08T14:14:51.291Z,8732.00
2018-06-08T14:17:33.616Z,9288.00
2018-06-08T14:18:33.582Z,9548.00
2018-06-08T14:19:33.436Z,9876.00
2018-06-08T14:20:33.400Z,10284.00
2018-06-08T14:21:33.296Z,10500.00
2018-06-08T14:23:22.659Z,10748.00
2018-06-08T14:23:33.236Z,10320.00
2018-06-08T14:24:33.073Z,9868.00
2018-06-08T14:25:33.035Z,9964.00
2018-06-08T14:26:32.929Z,9828.00
2018-06-08T14:29:15.095Z,10108.00
2018-06-08T14:31:57.114Z,10256.00
2018-06-08T14:32:57.172Z,10020.00
2018-06-08T14:33:56.938Z,10004.00
2018-06-08T14:34:56.965Z,9276.00
2018-06-08T14:35:56.784Z,8904.00
2018-06-08T14:36:56.784Z,8972.00
2018-06-08T14:37:56.641Z,8992.00
2018-06-08T14:38:56.662Z,9280.00
2018-06-08T14:39:56.548Z,10152.00
2018-06-08T14:42:38.630Z,10780.00
2018-06-08T14:43:38.569Z,10920.00
2018-06-08T14:44:38.444Z,10700.00
2018-06-08T14:45:38.497Z,10804.00
2018-06-08T14:46:38.308Z,10752.00
2018-06-08T14:47:38.373Z,10636.00
2018-06-08T14:48:38.153Z,10900.00
2018-06-08T14:49:38.201Z,10948.00
2018-06-08T14:50:38.007Z,10908.00
2018-06-08T14:51:38.023Z,11268.00
2018-06-08T14:52:37.875Z,11260.00
2018-06-08T14:53:37.869Z,11480.00
2018-06-08T14:54:37.705Z,12056.00
2018-06-08T14:55:37.838Z,12736.00
2018-06-08T14:56:37.564Z,12716.00
2018-06-08T14:57:37.531Z,12160.00
2018-06-08T14:58:37.427Z,11440.00
2018-06-08T14:59:37.466Z,11108.00
2018-06-08T15:00:37.269Z,10972.00
2018-06-08T15:01:37.263Z,11528.00
2018-06-08T15:02:37.157Z,10932.00
2018-06-08T15:03:37.097Z,10404.00
2018-06-08T15:04:36.996Z,10472.00
2018-06-08T15:05:36.981Z,10152.00
2018-06-08T15:06:36.808Z,9932.00
2018-06-08T15:07:36.779Z,9812.00
2018-06-08T15:08:36.689Z,9928.00
2018-06-08T15:11:30.505Z,9720.00
2018-06-08T15:14:12.152Z,10624.00
2018-06-08T15:15:12.053Z,10892.00
2018-06-08T15:16:11.960Z,11124.00
2018-06-08T15:17:11.972Z,10664.00
2018-06-08T15:18:11.840Z,9808.00
2018-06-08T15:19:11.806Z,8872.00
2018-06-08T15:20:11.684Z,8624.00
2018-06-08T15:21:11.713Z,8496.00
2018-06-08T15:22:11.522Z,8640.00
2018-06-08T15:23:11.521Z,8724.00
2018-06-08T15:24:11.382Z,9060.00
2018-06-08T15:25:11.440Z,9676.00
2018-06-08T15:26:11.230Z,9840.00
2018-06-08T15:27:11.212Z,9620.00
2018-06-08T15:28:11.060Z,8960.00
2018-06-08T15:29:11.059Z,8528.00
2018-06-08T15:30:10.945Z,8204.00
2018-06-08T15:31:10.924Z,7900.00
2018-06-08T15:32:10.775Z,7556.00
2018-06-08T15:33:10.760Z,7392.00
2018-06-08T15:34:10.641Z,7164.00